sensor_id;sensor_type;location;lat;lon;timestamp;pressure;altitude;pressure_sealevel;temperature;humidity
47082;BME280;33066;49.296;14.470;2023-04-28T00:03:40;97153.37;;;13.12;33.73
47082;BME280;33066;49.296;14.470;2023-04-28T00:06:05;97158.41;;;13.07;33.76
47082;BME280;33066;49.296;14.470;2023-04-28T00:08:32;97159.98;;;13.09;33.46
47082;BME280;33066;49.296;14.470;2023-04-28T00:10:55;97161.20;;;12.97;33.03
47082;BME280;33066;49.296;14.470;2023-04-28T00:13:20;97162.69;;;13.45;32.76
47082;BME280;33066;49.296;14.470;2023-04-28T00:15:46;97162.22;;;13.44;32.50
47082;BME280;33066;49.296;14.470;2023-04-28T00:18:12;97160.89;;;13.45;33.01
47082;BME280;33066;49.296;14.470;2023-04-28T00:20:37;97159.66;;;13.43;32.82
47082;BME280;33066;49.296;14.470;2023-04-28T00:23:02;97159.94;;;13.20;32.92
47082;BME280;33066;49.296;14.470;2023-04-28T00:25:28;97156.02;;;12.91;33.51
47082;BME280;33066;49.296;14.470;2023-04-28T00:27:53;97159.67;;;13.08;33.45
47082;BME280;33066;49.296;14.470;2023-04-28T00:30:19;97157.48;;;12.64;34.03
47082;BME280;33066;49.296;14.470;2023-04-28T00:32:45;97152.81;;;12.72;34.27
47082;BME280;33066;49.296;14.470;2023-04-28T00:35:10;97150.04;;;12.93;34.24
47082;BME280;33066;49.296;14.470;2023-04-28T00:37:49;97152.59;;;12.72;34.02
47082;BME280;33066;49.296;14.470;2023-04-28T00:40:01;97149.08;;;12.79;33.58
47082;BME280;33066;49.296;14.470;2023-04-28T00:42:26;97151.45;;;12.77;33.01
47082;BME280;33066;49.296;14.470;2023-04-28T00:44:52;97148.86;;;12.72;32.93
47082;BME280;33066;49.296;14.470;2023-04-28T00:47:17;97148.22;;;12.45;32.92
47082;BME280;33066;49.296;14.470;2023-04-28T00:49:43;97146.31;;;12.49;32.70
47082;BME280;33066;49.296;14.470;2023-04-28T00:52:08;97141.29;;;12.93;32.67
47082;BME280;33066;49.296;14.470;2023-04-28T00:54:34;97136.88;;;12.82;32.84
47082;BME280;33066;49.296;14.470;2023-04-28T00:57:00;97133.37;;;12.89;33.00
47082;BME280;33066;49.296;14.470;2023-04-28T00:59:25;97132.41;;;12.93;33.37
47082;BME280;33066;49.296;14.470;2023-04-28T01:01:51;97125.75;;;12.27;33.89
47082;BME280;33066;49.296;14.470;2023-04-28T01:04:17;97125.47;;;12.23;33.86
47082;BME280;33066;49.296;14.470;2023-04-28T01:06:41;97126.13;;;12.61;33.91
47082;BME280;33066;49.296;14.470;2023-04-28T01:09:06;97123.54;;;12.50;34.08
47082;BME280;33066;49.296;14.470;2023-04-28T01:11:31;97122.16;;;12.18;34.21
47082;BME280;33066;49.296;14.470;2023-04-28T01:13:57;97119.14;;;12.32;34.35
47082;BME280;33066;49.296;14.470;2023-04-28T01:16:23;97114.66;;;12.29;34.48
47082;BME280;33066;49.296;14.470;2023-04-28T01:18:48;97114.27;;;12.25;34.50
47082;BME280;33066;49.296;14.470;2023-04-28T01:21:14;97115.76;;;12.20;34.46
47082;BME280;33066;49.296;14.470;2023-04-28T01:23:39;97115.56;;;11.98;34.51
47082;BME280;33066;49.296;14.470;2023-04-28T01:26:04;97117.64;;;12.29;34.44
47082;BME280;33066;49.296;14.470;2023-04-28T01:28:30;97118.75;;;12.44;34.37
47082;BME280;33066;49.296;14.470;2023-04-28T01:30:55;97113.71;;;12.21;34.31
47082;BME280;33066;49.296;14.470;2023-04-28T01:33:20;97115.24;;;12.26;34.17
47082;BME280;33066;49.296;14.470;2023-04-28T01:35:46;97113.33;;;12.34;33.86
47082;BME280;33066;49.296;14.470;2023-04-28T01:38:11;97110.59;;;12.35;33.48
47082;BME280;33066;49.296;14.470;2023-04-28T01:40:36;97108.53;;;12.34;33.28
47082;BME280;33066;49.296;14.470;2023-04-28T01:43:02;97109.53;;;12.27;33.27
47082;BME280;33066;49.296;14.470;2023-04-28T01:45:27;97109.82;;;12.24;33.32
47082;BME280;33066;49.296;14.470;2023-04-28T01:47:53;97109.69;;;12.29;33.28
47082;BME280;33066;49.296;14.470;2023-04-28T01:50:18;97109.41;;;12.19;33.26
47082;BME280;33066;49.296;14.470;2023-04-28T01:52:43;97112.18;;;12.14;33.26
47082;BME280;33066;49.296;14.470;2023-04-28T01:55:09;97113.37;;;12.03;33.33
47082;BME280;33066;49.296;14.470;2023-04-28T01:57:34;97108.43;;;11.99;33.48
47082;BME280;33066;49.296;14.470;2023-04-28T01:59:59;97107.08;;;11.99;33.46
47082;BME280;33066;49.296;14.470;2023-04-28T02:02:25;97107.13;;;12.02;33.43
47082;BME280;33066;49.296;14.470;2023-04-28T02:04:50;97107.40;;;12.09;33.28
47082;BME280;33066;49.296;14.470;2023-04-28T02:07:17;97111.57;;;12.15;33.14
47082;BME280;33066;49.296;14.470;2023-04-28T02:09:41;97115.05;;;12.10;33.24
47082;BME280;33066;49.296;14.470;2023-04-28T02:12:07;97114.72;;;11.77;33.39
47082;BME280;33066;49.296;14.470;2023-04-28T02:14:32;97110.42;;;12.02;33.56
47082;BME280;33066;49.296;14.470;2023-04-28T02:16:57;97104.87;;;12.15;33.33
47082;BME280;33066;49.296;14.470;2023-04-28T02:19:22;97108.02;;;12.04;33.24
47082;BME280;33066;49.296;14.470;2023-04-28T02:21:48;97104.50;;;12.02;33.22
47082;BME280;33066;49.296;14.470;2023-04-28T02:24:13;97100.56;;;11.98;33.44
47082;BME280;33066;49.296;14.470;2023-04-28T02:26:38;97100.90;;;12.23;33.56
47082;BME280;33066;49.296;14.470;2023-04-28T02:29:03;97098.73;;;12.29;33.91
47082;BME280;33066;49.296;14.470;2023-04-28T02:31:28;97096.46;;;12.19;34.14
47082;BME280;33066;49.296;14.470;2023-04-28T02:33:53;97093.29;;;12.17;34.30
47082;BME280;33066;49.296;14.470;2023-04-28T02:36:18;97091.67;;;12.06;34.43
47082;BME280;33066;49.296;14.470;2023-04-28T02:38:44;97095.79;;;11.77;34.54
47082;BME280;33066;49.296;14.470;2023-04-28T02:41:11;97100.03;;;11.98;34.59
47082;BME280;33066;49.296;14.470;2023-04-28T02:43:35;97105.78;;;12.02;34.61
47082;BME280;33066;49.296;14.470;2023-04-28T02:46:00;97111.45;;;12.08;34.21
47082;BME280;33066;49.296;14.470;2023-04-28T02:48:25;97110.61;;;11.82;33.75
47082;BME280;33066;49.296;14.470;2023-04-28T02:50:50;97112.29;;;12.17;33.45
47082;BME280;33066;49.296;14.470;2023-04-28T02:53:16;97108.05;;;11.92;33.24
47082;BME280;33066;49.296;14.470;2023-04-28T02:55:41;97107.15;;;11.95;33.24
47082;BME280;33066;49.296;14.470;2023-04-28T02:58:06;97106.16;;;12.01;33.59
47082;BME280;33066;49.296;14.470;2023-04-28T03:00:31;97111.74;;;11.97;33.95
47082;BME280;33066;49.296;14.470;2023-04-28T03:02:57;97109.08;;;11.67;34.30
47082;BME280;33066;49.296;14.470;2023-04-28T03:05:22;97108.44;;;12.01;34.56
47082;BME280;33066;49.296;14.470;2023-04-28T03:07:47;97106.59;;;11.72;34.60
47082;BME280;33066;49.296;14.470;2023-04-28T03:13:00;97099.51;;;11.82;34.38
47082;BME280;33066;49.296;14.470;2023-04-28T03:15:25;97100.32;;;11.81;34.62
47082;BME280;33066;49.296;14.470;2023-04-28T03:17:50;97098.43;;;11.74;34.72
47082;BME280;33066;49.296;14.470;2023-04-28T03:20:16;97093.99;;;11.92;34.82
47082;BME280;33066;49.296;14.470;2023-04-28T03:22:42;97093.49;;;11.73;34.72
47082;BME280;33066;49.296;14.470;2023-04-28T03:25:08;97087.27;;;11.75;34.68
47082;BME280;33066;49.296;14.470;2023-04-28T03:27:34;97083.47;;;11.75;34.58
47082;BME280;33066;49.296;14.470;2023-04-28T03:29:59;97083.13;;;11.65;34.97
47082;BME280;33066;49.296;14.470;2023-04-28T03:32:23;97083.62;;;11.55;34.70
47082;BME280;33066;49.296;14.470;2023-04-28T03:34:50;97081.83;;;11.69;34.57
47082;BME280;33066;49.296;14.470;2023-04-28T03:37:13;97079.25;;;11.63;34.62
47082;BME280;33066;49.296;14.470;2023-04-28T03:39:39;97072.38;;;11.39;35.07
47082;BME280;33066;49.296;14.470;2023-04-28T03:42:05;97067.75;;;11.35;35.37
47082;BME280;33066;49.296;14.470;2023-04-28T03:44:30;97061.98;;;11.58;35.49
47082;BME280;33066;49.296;14.470;2023-04-28T03:46:57;97062.12;;;11.65;35.42
47082;BME280;33066;49.296;14.470;2023-04-28T03:49:21;97058.56;;;11.70;35.40
47082;BME280;33066;49.296;14.470;2023-04-28T03:51:47;97059.47;;;11.81;35.27
47082;BME280;33066;49.296;14.470;2023-04-28T03:54:13;97057.61;;;11.72;34.85
47082;BME280;33066;49.296;14.470;2023-04-28T03:56:38;97057.47;;;11.99;34.46
47082;BME280;33066;49.296;14.470;2023-04-28T03:59:04;97060.05;;;11.50;34.27
47082;BME280;33066;49.296;14.470;2023-04-28T04:01:30;97060.58;;;11.05;34.53
47082;BME280;33066;49.296;14.470;2023-04-28T04:03:56;97062.96;;;11.54;35.63
47082;BME280;33066;49.296;14.470;2023-04-28T04:06:21;97067.13;;;11.55;35.50
47082;BME280;33066;49.296;14.470;2023-04-28T04:08:46;97065.73;;;11.30;36.26
47082;BME280;33066;49.296;14.470;2023-04-28T04:11:11;97062.65;;;11.41;36.20
47082;BME280;33066;49.296;14.470;2023-04-28T04:13:37;97060.39;;;11.34;35.94
47082;BME280;33066;49.296;14.470;2023-04-28T04:16:02;97052.16;;;11.97;36.32
47082;BME280;33066;49.296;14.470;2023-04-28T04:18:28;97050.25;;;11.57;36.02
47082;BME280;33066;49.296;14.470;2023-04-28T04:20:53;97052.17;;;11.70;35.99
47082;BME280;33066;49.296;14.470;2023-04-28T04:23:19;97059.02;;;11.66;35.33
47082;BME280;33066;49.296;14.470;2023-04-28T04:25:44;97068.08;;;12.12;35.36
47082;BME280;33066;49.296;14.470;2023-04-28T04:28:10;97069.31;;;11.55;34.37
47082;BME280;33066;49.296;14.470;2023-04-28T04:30:35;97063.90;;;11.36;34.62
47082;BME280;33066;49.296;14.470;2023-04-28T04:33:01;97063.94;;;11.89;35.60
47082;BME280;33066;49.296;14.470;2023-04-28T04:35:26;97071.29;;;11.49;35.47
47082;BME280;33066;49.296;14.470;2023-04-28T04:37:52;97073.93;;;12.03;35.26
47082;BME280;33066;49.296;14.470;2023-04-28T04:40:17;97069.37;;;11.67;35.12
47082;BME280;33066;49.296;14.470;2023-04-28T04:42:44;97066.82;;;12.24;35.21
47082;BME280;33066;49.296;14.470;2023-04-28T04:45:08;97064.58;;;12.35;34.24
47082;BME280;33066;49.296;14.470;2023-04-28T04:47:33;97065.50;;;12.24;34.60
47082;BME280;33066;49.296;14.470;2023-04-28T04:49:59;97063.58;;;12.09;34.32
47082;BME280;33066;49.296;14.470;2023-04-28T04:52:24;97061.54;;;12.44;33.93
47082;BME280;33066;49.296;14.470;2023-04-28T04:54:50;97056.38;;;12.08;34.09
47082;BME280;33066;49.296;14.470;2023-04-28T04:57:15;97054.14;;;12.47;34.17
47082;BME280;33066;49.296;14.470;2023-04-28T04:59:40;97052.03;;;12.35;33.82
47082;BME280;33066;49.296;14.470;2023-04-28T05:02:05;97053.98;;;12.69;33.94
47082;BME280;33066;49.296;14.470;2023-04-28T05:04:31;97054.44;;;12.65;33.28
47082;BME280;33066;49.296;14.470;2023-04-28T05:06:57;97052.99;;;12.66;33.18
47082;BME280;33066;49.296;14.470;2023-04-28T05:09:21;97053.44;;;12.81;33.38
47082;BME280;33066;49.296;14.470;2023-04-28T05:11:46;97051.66;;;12.64;33.85
47082;BME280;33066;49.296;14.470;2023-04-28T05:14:12;97050.96;;;12.71;33.46
47082;BME280;33066;49.296;14.470;2023-04-28T05:16:38;97050.83;;;12.81;32.79
47082;BME280;33066;49.296;14.470;2023-04-28T05:19:03;97056.11;;;12.81;32.91
47082;BME280;33066;49.296;14.470;2023-04-28T05:21:29;97054.90;;;13.35;32.82
47082;BME280;33066;49.296;14.470;2023-04-28T05:23:53;97056.86;;;12.97;32.60
47082;BME280;33066;49.296;14.470;2023-04-28T05:26:18;97053.32;;;13.36;32.56
47082;BME280;33066;49.296;14.470;2023-04-28T05:28:43;97055.42;;;13.21;32.82
47082;BME280;33066;49.296;14.470;2023-04-28T05:31:08;97054.53;;;13.27;33.24
47082;BME280;33066;49.296;14.470;2023-04-28T05:33:33;97054.00;;;13.32;33.36
47082;BME280;33066;49.296;14.470;2023-04-28T05:35:58;97054.00;;;13.40;33.44
47082;BME280;33066;49.296;14.470;2023-04-28T05:38:24;97052.49;;;13.50;33.04
47082;BME280;33066;49.296;14.470;2023-04-28T05:40:49;97048.70;;;13.53;32.34
47082;BME280;33066;49.296;14.470;2023-04-28T05:43:14;97045.55;;;13.55;32.20
47082;BME280;33066;49.296;14.470;2023-04-28T05:45:40;97043.62;;;13.71;32.25
47082;BME280;33066;49.296;14.470;2023-04-28T05:48:05;97041.88;;;13.48;31.99
47082;BME280;33066;49.296;14.470;2023-04-28T05:50:32;97039.00;;;13.56;32.01
47082;BME280;33066;49.296;14.470;2023-04-28T05:52:56;97036.98;;;13.57;32.57
47082;BME280;33066;49.296;14.470;2023-04-28T05:55:21;97035.19;;;13.99;32.29
47082;BME280;33066;49.296;14.470;2023-04-28T05:57:46;97036.58;;;14.08;32.32
47082;BME280;33066;49.296;14.470;2023-04-28T06:00:13;97036.74;;;14.17;31.65
47082;BME280;33066;49.296;14.470;2023-04-28T06:02:37;97029.43;;;13.96;31.68
47082;BME280;33066;49.296;14.470;2023-04-28T06:05:02;97026.42;;;13.81;31.90
47082;BME280;33066;49.296;14.470;2023-04-28T06:07:28;97022.60;;;14.18;31.05
47082;BME280;33066;49.296;14.470;2023-04-28T06:09:53;97016.42;;;14.15;30.88
47082;BME280;33066;49.296;14.470;2023-04-28T06:12:18;97009.44;;;13.97;31.12
47082;BME280;33066;49.296;14.470;2023-04-28T06:14:43;97008.59;;;13.71;30.52
47082;BME280;33066;49.296;14.470;2023-04-28T06:17:08;97009.36;;;13.72;30.97
47082;BME280;33066;49.296;14.470;2023-04-28T06:19:34;97005.26;;;13.41;30.92
47082;BME280;33066;49.296;14.470;2023-04-28T06:21:59;97002.29;;;13.68;31.03
47082;BME280;33066;49.296;14.470;2023-04-28T06:24:25;96997.39;;;13.97;31.08
47082;BME280;33066;49.296;14.470;2023-04-28T06:26:51;97001.04;;;14.41;31.04
47082;BME280;33066;49.296;14.470;2023-04-28T06:29:16;97003.61;;;14.24;30.97
47082;BME280;33066;49.296;14.470;2023-04-28T06:31:41;96991.30;;;13.97;31.23
47082;BME280;33066;49.296;14.470;2023-04-28T06:34:07;96990.03;;;14.13;31.66
47082;BME280;33066;49.296;14.470;2023-04-28T06:36:32;96996.54;;;14.01;31.61
47082;BME280;33066;49.296;14.470;2023-04-28T06:38:57;96995.91;;;13.74;31.67
47082;BME280;33066;49.296;14.470;2023-04-28T06:41:23;96994.90;;;14.20;31.76
47082;BME280;33066;49.296;14.470;2023-04-28T06:43:48;96988.31;;;13.66;31.61
47082;BME280;33066;49.296;14.470;2023-04-28T06:46:14;96983.14;;;13.98;31.66
47082;BME280;33066;49.296;14.470;2023-04-28T06:48:39;96979.79;;;14.37;31.81
47082;BME280;33066;49.296;14.470;2023-04-28T06:51:05;96981.07;;;13.92;32.00
47082;BME280;33066;49.296;14.470;2023-04-28T06:53:30;96987.32;;;14.30;31.81
47082;BME280;33066;49.296;14.470;2023-04-28T06:55:56;96989.03;;;14.20;31.70
47082;BME280;33066;49.296;14.470;2023-04-28T06:58:22;96981.10;;;14.28;31.72
47082;BME280;33066;49.296;14.470;2023-04-28T07:00:47;96970.12;;;14.43;31.69
47082;BME280;33066;49.296;14.470;2023-04-28T07:03:13;96966.69;;;14.52;31.24
47082;BME280;33066;49.296;14.470;2023-04-28T07:05:39;96965.92;;;14.87;31.56
47082;BME280;33066;49.296;14.470;2023-04-28T07:08:05;96965.16;;;14.63;31.99
47082;BME280;33066;49.296;14.470;2023-04-28T07:10:30;96965.00;;;14.52;31.78
47082;BME280;33066;49.296;14.470;2023-04-28T07:12:57;96964.97;;;14.35;31.94
47082;BME280;33066;49.296;14.470;2023-04-28T07:15:21;96964.40;;;14.46;31.67
47082;BME280;33066;49.296;14.470;2023-04-28T07:17:46;96965.47;;;14.64;32.07
47082;BME280;33066;49.296;14.470;2023-04-28T07:20:14;96969.05;;;14.82;31.08
47082;BME280;33066;49.296;14.470;2023-04-28T07:22:37;96974.26;;;14.70;31.27
47082;BME280;33066;49.296;14.470;2023-04-28T07:25:02;96975.02;;;15.05;31.39
47082;BME280;33066;49.296;14.470;2023-04-28T07:27:28;96971.95;;;14.84;31.38
47082;BME280;33066;49.296;14.470;2023-04-28T07:29:53;96966.15;;;14.79;31.58
47082;BME280;33066;49.296;14.470;2023-04-28T07:32:18;96960.18;;;14.60;31.91
47082;BME280;33066;49.296;14.470;2023-04-28T07:34:44;96957.02;;;14.81;32.00
47082;BME280;33066;49.296;14.470;2023-04-28T07:37:10;96960.71;;;14.88;31.84
47082;BME280;33066;49.296;14.470;2023-04-28T07:39:35;96966.15;;;15.14;31.87
47082;BME280;33066;49.296;14.470;2023-04-28T07:42:02;96966.76;;;15.20;31.71
47082;BME280;33066;49.296;14.470;2023-04-28T07:44:26;96959.62;;;14.92;31.90
47082;BME280;33066;49.296;14.470;2023-04-28T07:46:53;96960.17;;;15.56;31.53
47082;BME280;33066;49.296;14.470;2023-04-28T07:49:18;96959.90;;;15.37;31.43
47082;BME280;33066;49.296;14.470;2023-04-28T07:51:42;96958.61;;;15.44;31.44
47082;BME280;33066;49.296;14.470;2023-04-28T07:54:07;96950.06;;;15.96;31.60
47082;BME280;33066;49.296;14.470;2023-04-28T07:56:32;96948.13;;;15.93;31.18
47082;BME280;33066;49.296;14.470;2023-04-28T07:58:58;96949.62;;;16.02;31.12
47082;BME280;33066;49.296;14.470;2023-04-28T08:01:23;96947.23;;;15.98;30.96
47082;BME280;33066;49.296;14.470;2023-04-28T08:03:50;96940.22;;;16.09;30.88
47082;BME280;33066;49.296;14.470;2023-04-28T08:06:15;96934.69;;;15.90;30.86
47082;BME280;33066;49.296;14.470;2023-04-28T08:08:40;96934.27;;;16.46;30.76
47082;BME280;33066;49.296;14.470;2023-04-28T08:11:05;96932.97;;;16.60;30.63
47082;BME280;33066;49.296;14.470;2023-04-28T08:13:32;96931.88;;;16.43;30.29
47082;BME280;33066;49.296;14.470;2023-04-28T08:15:56;96929.23;;;16.56;29.90
47082;BME280;33066;49.296;14.470;2023-04-28T08:18:23;96931.98;;;16.59;29.93
47082;BME280;33066;49.296;14.470;2023-04-28T08:20:47;96932.06;;;16.15;29.97
47082;BME280;33066;49.296;14.470;2023-04-28T08:23:12;96930.28;;;16.05;30.50
47082;BME280;33066;49.296;14.470;2023-04-28T08:25:38;96925.47;;;16.31;30.27
47082;BME280;33066;49.296;14.470;2023-04-28T08:28:04;96914.22;;;16.77;30.21
47082;BME280;33066;49.296;14.470;2023-04-28T08:30:29;96913.78;;;17.03;29.98
47082;BME280;33066;49.296;14.470;2023-04-28T08:32:55;96907.76;;;16.82;29.43
47082;BME280;33066;49.296;14.470;2023-04-28T08:35:20;96907.40;;;16.92;29.23
47082;BME280;33066;49.296;14.470;2023-04-28T08:37:46;96897.92;;;17.23;28.92
47082;BME280;33066;49.296;14.470;2023-04-28T08:40:12;96893.51;;;17.00;29.20
47082;BME280;33066;49.296;14.470;2023-04-28T08:42:38;96889.21;;;17.49;28.98
47082;BME280;33066;49.296;14.470;2023-04-28T08:45:04;96894.82;;;17.41;28.71
47082;BME280;33066;49.296;14.470;2023-04-28T08:47:34;96896.25;;;17.79;28.62
47082;BME280;33066;49.296;14.470;2023-04-28T08:49:56;96891.70;;;17.53;28.61
47082;BME280;33066;49.296;14.470;2023-04-28T08:52:20;96887.26;;;18.00;28.32
47082;BME280;33066;49.296;14.470;2023-04-28T08:54:48;96875.37;;;18.08;28.50
47082;BME280;33066;49.296;14.470;2023-04-28T08:57:11;96870.46;;;18.36;28.31
47082;BME280;33066;49.296;14.470;2023-04-28T08:59:38;96870.28;;;18.49;28.03
47082;BME280;33066;49.296;14.470;2023-04-28T09:02:01;96875.68;;;18.54;27.92
47082;BME280;33066;49.296;14.470;2023-04-28T09:04:26;96877.26;;;18.41;28.06
47082;BME280;33066;49.296;14.470;2023-04-28T09:06:53;96872.66;;;18.49;27.53
47082;BME280;33066;49.296;14.470;2023-04-28T09:09:20;96870.50;;;17.97;27.72
47082;BME280;33066;49.296;14.470;2023-04-28T09:11:50;96865.50;;;17.48;28.49
47082;BME280;33066;49.296;14.470;2023-04-28T09:14:11;96865.42;;;17.86;28.06
47082;BME280;33066;49.296;14.470;2023-04-28T09:16:38;96863.50;;;17.89;28.10
47082;BME280;33066;49.296;14.470;2023-04-28T09:18:59;96859.79;;;17.64;27.84
47082;BME280;33066;49.296;14.470;2023-04-28T09:21:25;96858.51;;;18.01;28.19
47082;BME280;33066;49.296;14.470;2023-04-28T09:23:50;96862.82;;;18.20;28.00
47082;BME280;33066;49.296;14.470;2023-04-28T09:26:17;96863.84;;;17.90;27.93
47082;BME280;33066;49.296;14.470;2023-04-28T09:28:41;96865.20;;;17.60;27.76
47082;BME280;33066;49.296;14.470;2023-04-28T09:31:21;96866.11;;;17.74;27.88
47082;BME280;33066;49.296;14.470;2023-04-28T09:33:32;96867.44;;;17.95;28.14
47082;BME280;33066;49.296;14.470;2023-04-28T09:35:57;96869.29;;;17.92;28.20
47082;BME280;33066;49.296;14.470;2023-04-28T09:38:22;96871.39;;;17.89;28.10
47082;BME280;33066;49.296;14.470;2023-04-28T09:40:50;96868.92;;;17.92;27.88
47082;BME280;33066;49.296;14.470;2023-04-28T09:43:22;96865.39;;;18.14;28.11
47082;BME280;33066;49.296;14.470;2023-04-28T09:45:39;96861.43;;;18.33;27.58
47082;BME280;33066;49.296;14.470;2023-04-28T09:48:09;96857.60;;;18.37;26.92
47082;BME280;33066;49.296;14.470;2023-04-28T09:52:56;96850.69;;;18.34;26.76
47082;BME280;33066;49.296;14.470;2023-04-28T09:55:20;96852.37;;;18.59;26.75
47082;BME280;33066;49.296;14.470;2023-04-28T09:57:45;96840.08;;;18.60;26.60
47082;BME280;33066;49.296;14.470;2023-04-28T10:00:10;96832.14;;;18.92;26.42
47082;BME280;33066;49.296;14.470;2023-04-28T10:02:36;96831.83;;;18.86;25.78
47082;BME280;33066;49.296;14.470;2023-04-28T10:05:02;96831.29;;;18.50;25.83
47082;BME280;33066;49.296;14.470;2023-04-28T10:07:28;96826.41;;;18.54;25.73
47082;BME280;33066;49.296;14.470;2023-04-28T10:09:54;96824.21;;;18.53;26.21
47082;BME280;33066;49.296;14.470;2023-04-28T10:12:20;96822.12;;;18.87;26.25
47082;BME280;33066;49.296;14.470;2023-04-28T10:14:43;96821.82;;;19.02;26.25
47082;BME280;33066;49.296;14.470;2023-04-28T10:17:08;96817.41;;;19.07;26.11
47082;BME280;33066;49.296;14.470;2023-04-28T10:19:34;96810.10;;;18.93;26.03
47082;BME280;33066;49.296;14.470;2023-04-28T10:22:12;96802.49;;;18.99;26.53
47082;BME280;33066;49.296;14.470;2023-04-28T10:24:30;96797.41;;;18.84;26.27
47082;BME280;33066;49.296;14.470;2023-04-28T10:27:03;96795.43;;;19.01;25.84
47082;BME280;33066;49.296;14.470;2023-04-28T10:29:14;96788.25;;;19.01;26.22
47082;BME280;33066;49.296;14.470;2023-04-28T10:36:45;96763.21;;;18.89;26.42
47082;BME280;33066;49.296;14.470;2023-04-28T10:39:07;96747.08;;;19.34;26.10
47082;BME280;33066;49.296;14.470;2023-04-28T10:41:31;96741.10;;;18.72;26.49
47082;BME280;33066;49.296;14.470;2023-04-28T10:43:46;96743.24;;;19.01;26.14
47082;BME280;33066;49.296;14.470;2023-04-28T10:46:13;96749.06;;;18.70;25.73
47082;BME280;33066;49.296;14.470;2023-04-28T10:48:51;96762.31;;;18.86;25.93
47082;BME280;33066;49.296;14.470;2023-04-28T10:58:30;96765.50;;;18.72;25.93
47082;BME280;33066;49.296;14.470;2023-04-28T11:00:43;96768.91;;;18.77;25.99
47082;BME280;33066;49.296;14.470;2023-04-28T11:03:08;96769.09;;;18.94;25.80
47082;BME280;33066;49.296;14.470;2023-04-28T11:05:33;96767.72;;;18.71;25.76
47082;BME280;33066;49.296;14.470;2023-04-28T11:10:23;96771.71;;;18.65;25.01
47082;BME280;33066;49.296;14.470;2023-04-28T11:15:14;96753.87;;;18.49;25.19
47082;BME280;33066;49.296;14.470;2023-04-28T11:17:40;96754.95;;;18.36;25.11
47082;BME280;33066;49.296;14.470;2023-04-28T11:20:06;96748.07;;;18.34;25.28
47082;BME280;33066;49.296;14.470;2023-04-28T11:22:30;96748.51;;;18.46;25.66
47082;BME280;33066;49.296;14.470;2023-04-28T11:24:57;96755.32;;;18.50;25.89
47082;BME280;33066;49.296;14.470;2023-04-28T11:27:22;96762.90;;;18.34;25.91
47082;BME280;33066;49.296;14.470;2023-04-28T11:29:46;96759.50;;;18.48;25.78
47082;BME280;33066;49.296;14.470;2023-04-28T11:32:13;96768.08;;;18.59;26.11
47082;BME280;33066;49.296;14.470;2023-04-28T11:34:36;96776.09;;;18.73;25.91
47082;BME280;33066;49.296;14.470;2023-04-28T11:37:03;96776.67;;;18.56;25.81
47082;BME280;33066;49.296;14.470;2023-04-28T11:39:28;96766.20;;;18.95;26.29
47082;BME280;33066;49.296;14.470;2023-04-28T11:41:52;96756.53;;;18.51;25.90
47082;BME280;33066;49.296;14.470;2023-04-28T11:44:19;96754.45;;;18.72;26.60
47082;BME280;33066;49.296;14.470;2023-04-28T11:46:45;96753.94;;;18.55;26.77
47082;BME280;33066;49.296;14.470;2023-04-28T11:49:08;96764.68;;;18.65;27.08
47082;BME280;33066;49.296;14.470;2023-04-28T11:51:36;96767.55;;;18.33;27.33
47082;BME280;33066;49.296;14.470;2023-04-28T11:54:00;96770.16;;;18.30;27.67
47082;BME280;33066;49.296;14.470;2023-04-28T11:56:25;96775.44;;;18.37;28.07
47082;BME280;33066;49.296;14.470;2023-04-28T11:58:59;96782.57;;;18.50;28.49
47082;BME280;33066;49.296;14.470;2023-04-28T12:01:16;96788.22;;;18.62;28.76
47082;BME280;33066;49.296;14.470;2023-04-28T12:03:43;96791.37;;;18.74;28.75
47082;BME280;33066;49.296;14.470;2023-04-28T12:06:06;96790.64;;;18.73;28.71
47082;BME280;33066;49.296;14.470;2023-04-28T12:08:32;96788.88;;;18.92;28.89
47082;BME280;33066;49.296;14.470;2023-04-28T12:11:07;96788.66;;;18.75;29.38
47082;BME280;33066;49.296;14.470;2023-04-28T12:13:22;96796.98;;;18.69;30.04
47082;BME280;33066;49.296;14.470;2023-04-28T12:15:48;96801.56;;;18.60;30.31
47082;BME280;33066;49.296;14.470;2023-04-28T12:18:13;96794.33;;;18.86;29.75
47082;BME280;33066;49.296;14.470;2023-04-28T12:20:38;96797.76;;;18.67;30.37
47082;BME280;33066;49.296;14.470;2023-04-28T12:23:04;96804.46;;;18.89;31.01
47082;BME280;33066;49.296;14.470;2023-04-28T12:25:29;96810.80;;;18.40;31.77
47082;BME280;33066;49.296;14.470;2023-04-28T12:27:59;96805.99;;;18.68;32.19
47082;BME280;33066;49.296;14.470;2023-04-28T12:30:25;96805.33;;;18.73;32.28
47082;BME280;33066;49.296;14.470;2023-04-28T12:32:45;96805.74;;;18.74;32.68
47082;BME280;33066;49.296;14.470;2023-04-28T12:35:11;96810.54;;;18.72;32.57
47082;BME280;33066;49.296;14.470;2023-04-28T12:37:36;96813.68;;;18.67;33.09
47082;BME280;33066;49.296;14.470;2023-04-28T12:40:02;96817.30;;;18.66;33.46
47082;BME280;33066;49.296;14.470;2023-04-28T12:42:27;96819.05;;;18.62;33.50
47082;BME280;33066;49.296;14.470;2023-04-28T12:44:53;96817.19;;;18.61;34.02
47082;BME280;33066;49.296;14.470;2023-04-28T12:47:19;96817.36;;;18.83;34.10
47082;BME280;33066;49.296;14.470;2023-04-28T12:49:43;96812.10;;;18.80;34.58
47082;BME280;33066;49.296;14.470;2023-04-28T12:52:09;96803.71;;;18.78;34.81
47082;BME280;33066;49.296;14.470;2023-04-28T12:54:34;96800.27;;;18.76;35.23
47082;BME280;33066;49.296;14.470;2023-04-28T12:57:00;96807.91;;;18.49;35.80
47082;BME280;33066;49.296;14.470;2023-04-28T12:59:25;96814.93;;;18.36;35.93
47082;BME280;33066;49.296;14.470;2023-04-28T13:01:50;96820.45;;;18.28;35.59
47082;BME280;33066;49.296;14.470;2023-04-28T13:04:16;96815.21;;;18.50;35.69